createdAt,value
2023-03-19T00:00:10.416Z,12.18
2023-03-19T00:03:13.188Z,11.35
2023-03-19T00:06:15.800Z,11.82
2023-03-19T00:09:21.433Z,10.82
2023-03-19T00:12:23.694Z,11.80
2023-03-19T00:15:26.109Z,11.05
2023-03-19T00:18:28.387Z,11.18
2023-03-19T00:21:32.307Z,11.95
2023-03-19T00:30:39.986Z,10.57
2023-03-19T00:33:42.859Z,11.90
2023-03-19T00:36:45.990Z,11.38
2023-03-19T00:39:48.231Z,11.82
2023-03-19T00:42:50.781Z,11.60
2023-03-19T00:45:53.305Z,12.55
2023-03-19T00:48:55.871Z,11.98
2023-03-19T00:51:58.255Z,12.82
2023-03-19T00:55:00.786Z,11.63
2023-03-19T00:58:03.200Z,12.32
2023-03-19T01:01:06.069Z,12.73
2023-03-19T01:04:08.688Z,11.32
2023-03-19T01:07:11.385Z,11.23
2023-03-19T01:10:13.755Z,10.60
2023-03-19T01:13:16.026Z,11.30
2023-03-19T01:16:18.400Z,11.00
2023-03-19T01:19:21.120Z,11.85
2023-03-19T01:22:23.439Z,10.70
2023-03-19T01:25:31.379Z,11.13
2023-03-19T01:28:38.256Z,11.30
2023-03-19T01:31:41.018Z,11.32
2023-03-19T01:34:57.843Z,10.65
2023-03-19T01:38:00.332Z,10.82
2023-03-19T01:41:03.402Z,10.63
2023-03-19T01:44:30.527Z,12.10
2023-03-19T01:48:02.214Z,9.50
2023-03-19T01:51:26.760Z,10.20
2023-03-19T01:54:46.622Z,10.90
2023-03-19T01:58:09.937Z,10.77
2023-03-19T02:01:34.284Z,10.27
2023-03-19T02:04:38.480Z,10.57
2023-03-19T02:07:42.576Z,10.43
2023-03-19T02:10:47.002Z,10.38
2023-03-19T02:13:49.547Z,10.05
2023-03-19T02:16:53.128Z,11.15
2023-03-19T02:23:26.254Z,9.68
2023-03-19T02:26:32.452Z,8.75
2023-03-19T02:29:38.466Z,10.05
2023-03-19T02:32:40.813Z,8.98
2023-03-19T02:35:47.677Z,9.57
2023-03-19T02:38:52.828Z,9.43
2023-03-19T02:41:57.232Z,9.70
2023-03-19T02:45:00.512Z,9.27
2023-03-19T02:48:03.855Z,9.77
2023-03-19T02:57:11.031Z,8.40
2023-03-19T03:00:14.211Z,8.85
2023-03-19T03:03:17.164Z,8.75
2023-03-19T03:06:19.468Z,8.75
2023-03-19T03:09:22.642Z,8.75
2023-03-19T03:12:25.072Z,8.90
2023-03-19T03:15:27.401Z,9.40
2023-03-19T03:18:29.905Z,9.23
2023-03-19T03:21:34.353Z,8.85
2023-03-19T03:24:39.298Z,8.93
2023-03-19T03:27:41.941Z,8.77
2023-03-19T03:30:45.409Z,7.93
2023-03-19T03:36:50.219Z,7.57
2023-03-19T03:39:53.408Z,8.13
2023-03-19T03:49:01.055Z,7.32
2023-03-19T03:52:03.336Z,7.32
2023-03-19T03:55:07.516Z,7.85
2023-03-19T03:58:10.647Z,7.35
2023-03-19T04:01:17.088Z,7.82
2023-03-19T04:04:22.673Z,6.95
2023-03-19T04:07:25.024Z,7.78
2023-03-19T04:10:31.514Z,7.50
2023-03-19T04:16:39.822Z,7.10
2023-03-19T04:19:43.482Z,6.80
2023-03-19T04:22:46.668Z,7.43
2023-03-19T04:25:49.173Z,6.93
2023-03-19T04:28:51.948Z,7.32
2023-03-19T04:31:54.478Z,6.80
2023-03-19T04:34:58.395Z,7.28
2023-03-19T04:38:00.645Z,7.05
2023-03-19T04:41:04.251Z,6.78
2023-03-19T04:44:09.591Z,7.32
2023-03-19T04:47:14.632Z,6.25
2023-03-19T04:50:25.295Z,6.30
2023-03-19T04:53:29.707Z,6.43
2023-03-19T04:56:32.490Z,6.82
2023-03-19T04:59:34.965Z,6.15
2023-03-19T05:02:38.482Z,7.50
2023-03-19T05:05:41.083Z,6.82
2023-03-19T05:08:44.499Z,8.32
2023-03-19T05:11:46.945Z,8.05
2023-03-19T05:14:53.944Z,8.13
2023-03-19T05:17:58.904Z,6.35
2023-03-19T05:21:13.756Z,6.85
2023-03-19T05:24:16.520Z,6.70
2023-03-19T05:27:20.514Z,10.05
2023-03-19T05:30:29.102Z,7.05
2023-03-19T05:33:54.112Z,6.55
2023-03-19T05:36:56.935Z,8.07
2023-03-19T05:39:59.695Z,6.95
2023-03-19T05:43:02.095Z,6.93
2023-03-19T05:46:06.098Z,6.43
2023-03-19T05:49:09.402Z,7.00
2023-03-19T05:52:11.826Z,6.07
2023-03-19T05:55:14.377Z,5.95
2023-03-19T05:58:22.202Z,6.20
2023-03-19T06:04:27.869Z,6.03
2023-03-19T06:07:30.341Z,6.32
2023-03-19T06:10:37.252Z,5.85
2023-03-19T06:13:44.233Z,5.95
2023-03-19T06:16:51.022Z,6.63
2023-03-19T06:19:53.378Z,7.50
2023-03-19T06:22:55.629Z,6.50
2023-03-19T06:25:57.995Z,6.05
2023-03-19T06:29:03.818Z,5.53
2023-03-19T06:32:06.196Z,6.05
2023-03-19T06:35:14.642Z,6.75
2023-03-19T06:38:20.039Z,6.43
2023-03-19T06:41:22.646Z,5.72
2023-03-19T06:44:25.903Z,5.70
2023-03-19T06:47:28.333Z,5.82
2023-03-19T06:50:30.583Z,6.45
2023-03-19T06:53:33.084Z,5.32
2023-03-19T06:56:35.457Z,5.15
2023-03-19T06:59:37.756Z,5.75
2023-03-19T07:02:40.334Z,10.95
2023-03-19T07:05:42.661Z,6.30
2023-03-19T07:08:47.819Z,13.05
2023-03-19T07:11:50.358Z,5.53
2023-03-19T07:14:52.667Z,6.20
2023-03-19T07:17:54.917Z,6.00
2023-03-19T07:20:57.217Z,5.00
2023-03-19T07:23:59.542Z,5.20
2023-03-19T07:27:02.364Z,5.47
2023-03-19T07:30:05.038Z,5.15
2023-03-19T07:33:08.290Z,5.25
2023-03-19T07:36:11.285Z,5.38
2023-03-19T07:39:13.637Z,4.88
2023-03-19T07:42:16.579Z,5.75
2023-03-19T07:48:21.002Z,5.15
2023-03-19T07:51:23.331Z,5.35
2023-03-19T07:54:25.811Z,5.72
2023-03-19T07:57:28.168Z,6.13
2023-03-19T08:00:30.656Z,6.43
2023-03-19T08:03:33.458Z,5.50
2023-03-19T08:06:35.730Z,4.78
2023-03-19T08:09:39.444Z,5.22
2023-03-19T08:12:41.818Z,5.10
2023-03-19T08:15:44.080Z,5.78
2023-03-19T08:18:46.330Z,5.55
2023-03-19T08:21:48.800Z,5.13
2023-03-19T08:24:51.072Z,5.03
2023-03-19T08:27:53.400Z,5.38
2023-03-19T08:30:56.154Z,5.70
2023-03-19T08:34:03.316Z,5.22
2023-03-19T08:37:05.928Z,5.80
2023-03-19T08:43:11.036Z,5.03
2023-03-19T08:46:13.500Z,4.47
2023-03-19T08:49:16.044Z,5.18
2023-03-19T08:52:19.024Z,4.97
2023-03-19T08:55:21.269Z,4.95
2023-03-19T08:58:24.056Z,4.93
2023-03-19T09:01:26.455Z,5.53
2023-03-19T09:04:29.107Z,5.85
2023-03-19T09:07:31.458Z,5.13
2023-03-19T09:10:34.072Z,5.07
2023-03-19T09:13:37.497Z,4.88
2023-03-19T09:16:40.659Z,5.50
2023-03-19T09:19:42.978Z,5.25
2023-03-19T09:22:45.618Z,11.55
2023-03-19T09:25:48.651Z,6.93
2023-03-19T09:28:51.690Z,6.70
2023-03-19T09:31:54.095Z,5.40
2023-03-19T09:37:59.276Z,5.63
2023-03-19T09:41:09.347Z,5.45
2023-03-19T09:44:21.910Z,5.63
2023-03-19T09:47:31.329Z,5.47
2023-03-19T09:50:38.180Z,5.13
2023-03-19T09:53:44.715Z,5.38
2023-03-19T09:56:46.983Z,5.85
2023-03-19T09:59:49.408Z,6.03
2023-03-19T10:02:55.171Z,7.00
2023-03-19T10:06:05.634Z,6.60
2023-03-19T10:09:31.137Z,5.90
2023-03-19T10:12:55.015Z,6.50
2023-03-19T10:15:59.781Z,5.22
2023-03-19T10:19:04.272Z,4.65
2023-03-19T10:22:08.630Z,5.28
2023-03-19T10:25:14.013Z,4.88
2023-03-19T10:28:18.748Z,4.50
2023-03-19T10:31:30.269Z,4.43
2023-03-19T10:34:35.569Z,4.57
2023-03-19T10:37:38.372Z,4.65
2023-03-19T10:40:51.759Z,4.70
2023-03-19T10:43:57.092Z,4.20
2023-03-19T10:47:00.369Z,4.30
2023-03-19T10:50:03.348Z,4.45
2023-03-19T10:53:19.417Z,4.88
2023-03-19T10:56:24.008Z,3.85
2023-03-19T10:59:38.302Z,4.00
2023-03-19T11:02:48.024Z,4.47
2023-03-19T11:06:23.364Z,4.55
2023-03-19T11:09:35.753Z,4.45
2023-03-19T11:12:38.945Z,5.35
2023-03-19T12:04:34.026Z,4.72
2023-03-19T12:07:48.506Z,4.20
2023-03-19T12:11:12.262Z,4.88
2023-03-19T12:14:30.246Z,4.35
2023-03-19T12:18:00.623Z,4.65
2023-03-19T12:21:05.848Z,4.85
2023-03-19T12:24:18.893Z,4.53
2023-03-19T12:27:36.554Z,4.22
2023-03-19T12:30:50.213Z,4.47
2023-03-19T12:33:58.416Z,4.30
2023-03-19T12:37:25.157Z,4.80
2023-03-19T12:40:34.759Z,4.82
2023-03-19T12:43:39.178Z,4.78
2023-03-19T12:46:46.451Z,4.80
2023-03-19T12:49:53.945Z,4.47
2023-03-19T12:52:58.582Z,4.13
2023-03-19T12:56:08.911Z,5.18
2023-03-19T12:59:26.631Z,4.57
2023-03-19T13:02:31.291Z,4.32
2023-03-19T13:05:41.715Z,4.57
2023-03-19T13:08:59.310Z,5.00
2023-03-19T13:12:10.521Z,4.78
2023-03-19T13:15:29.275Z,4.90
2023-03-19T13:18:53.199Z,4.22
2023-03-19T13:21:59.071Z,4.55
2023-03-19T13:25:02.138Z,4.35
2023-03-19T13:28:10.039Z,4.07
2023-03-19T13:31:23.637Z,4.47
2023-03-19T13:34:27.865Z,4.60
2023-03-19T13:37:30.165Z,5.05
2023-03-19T13:40:37.661Z,3.67
2023-03-19T13:43:43.110Z,5.38
2023-03-19T13:46:45.613Z,4.68
2023-03-19T13:50:08.778Z,4.43
2023-03-19T13:53:42.955Z,4.35
2023-03-19T13:57:07.075Z,4.47
2023-03-19T14:00:45.608Z,4.40
2023-03-19T14:03:56.285Z,4.57
2023-03-19T14:07:10.977Z,4.47
2023-03-19T14:10:16.157Z,4.22
2023-03-19T14:13:44.407Z,4.10
2023-03-19T14:16:47.000Z,4.60
2023-03-19T14:19:50.775Z,4.18
2023-03-19T14:22:56.530Z,4.22
2023-03-19T14:26:05.608Z,4.50
2023-03-19T14:29:08.486Z,5.90
2023-03-19T14:35:20.340Z,4.47
2023-03-19T14:38:34.781Z,4.50
2023-03-19T14:41:43.414Z,3.88
2023-03-19T14:45:01.934Z,5.20
2023-03-19T14:48:38.285Z,4.20
2023-03-19T14:52:10.788Z,5.38
2023-03-19T14:55:15.085Z,4.60
2023-03-19T14:58:18.357Z,4.82
2023-03-19T15:01:21.787Z,5.20
2023-03-19T15:04:25.741Z,5.03
2023-03-19T15:07:34.420Z,4.50
2023-03-19T15:10:51.898Z,5.28
2023-03-19T15:14:19.755Z,5.07
2023-03-19T15:17:25.640Z,4.68
2023-03-19T15:20:33.609Z,4.38
2023-03-19T15:23:36.588Z,4.53
2023-03-19T15:29:41.733Z,4.95
2023-03-19T15:33:04.370Z,4.97
2023-03-19T15:36:32.148Z,4.55
2023-03-19T15:39:37.477Z,4.72
2023-03-19T15:42:40.212Z,5.50
2023-03-19T15:45:46.370Z,5.60
2023-03-19T15:48:52.836Z,5.43
2023-03-19T15:51:59.598Z,5.30
2023-03-19T15:55:03.392Z,4.60
2023-03-19T15:58:08.860Z,5.28
2023-03-19T16:01:12.543Z,5.18
2023-03-19T16:04:20.873Z,5.00
2023-03-19T16:07:49.076Z,5.03
2023-03-19T16:10:51.588Z,5.35
2023-03-19T16:14:02.087Z,4.65
2023-03-19T16:17:15.420Z,5.22
2023-03-19T16:20:18.211Z,4.93
2023-03-19T16:23:21.365Z,6.45
2023-03-19T16:26:26.073Z,14.48
2023-03-19T16:29:31.259Z,6.72
2023-03-19T16:32:35.378Z,5.20
2023-03-19T16:35:37.937Z,5.32
2023-03-19T16:39:11.663Z,4.57
2023-03-19T16:42:28.931Z,5.00
2023-03-19T16:45:32.506Z,4.93
2023-03-19T16:48:34.897Z,4.93
2023-03-19T16:51:37.486Z,4.70
2023-03-19T16:54:39.744Z,4.75
2023-03-19T16:57:42.094Z,5.53
2023-03-19T17:00:44.948Z,5.28
2023-03-19T17:03:47.875Z,5.35
2023-03-19T17:06:50.705Z,5.57
2023-03-19T17:12:55.596Z,5.15
2023-03-19T17:19:01.282Z,5.00
2023-03-19T17:22:03.548Z,5.22
2023-03-19T17:25:11.705Z,5.63
2023-03-19T17:28:13.961Z,6.03
2023-03-19T17:31:30.307Z,5.85
2023-03-19T17:34:33.076Z,4.95
2023-03-19T17:37:36.036Z,5.22
2023-03-19T17:40:38.275Z,5.97
2023-03-19T17:43:40.688Z,5.93
2023-03-19T17:46:45.280Z,6.75
2023-03-19T17:49:47.760Z,5.82
2023-03-19T17:52:50.286Z,6.70
2023-03-19T17:55:52.574Z,7.72
2023-03-19T17:58:55.196Z,10.07
2023-03-19T18:01:57.446Z,8.65
2023-03-19T18:05:00.253Z,6.88
2023-03-19T18:08:02.510Z,6.70
2023-03-19T18:11:05.898Z,6.63
2023-03-19T18:14:08.124Z,7.65
2023-03-19T18:17:18.444Z,8.57
2023-03-19T18:20:22.840Z,8.65
2023-03-19T18:23:25.109Z,6.30
2023-03-19T18:26:27.389Z,6.38
2023-03-19T18:29:29.780Z,6.22
2023-03-19T18:32:32.560Z,6.72
2023-03-19T18:35:39.213Z,6.10
2023-03-19T18:38:41.452Z,6.22
2023-03-19T18:41:44.135Z,6.80
2023-03-19T18:44:46.432Z,7.28
2023-03-19T18:47:49.166Z,7.90
2023-03-19T18:50:52.289Z,11.30
2023-03-19T18:53:55.543Z,13.70
2023-03-19T18:57:02.117Z,11.32
2023-03-19T19:00:05.102Z,8.40
2023-03-19T19:06:10.241Z,7.03
2023-03-19T19:09:12.740Z,7.45
2023-03-19T19:12:18.307Z,7.15
2023-03-19T19:15:35.557Z,7.07
2023-03-19T19:18:37.809Z,7.40
2023-03-19T19:21:40.023Z,8.27
2023-03-19T19:24:43.325Z,8.13
2023-03-19T19:27:47.736Z,8.50
2023-03-19T19:30:50.024Z,7.88
2023-03-19T19:33:53.225Z,9.10
2023-03-19T19:36:58.646Z,7.50
2023-03-19T19:40:01.005Z,7.82
2023-03-19T19:43:03.347Z,8.82
2023-03-19T19:46:05.925Z,8.52
2023-03-19T19:49:12.754Z,7.65
2023-03-19T19:52:17.285Z,8.00
2023-03-19T19:55:20.318Z,7.88
2023-03-19T19:58:26.934Z,8.75
2023-03-19T20:01:29.281Z,8.20
2023-03-19T20:04:31.608Z,8.23
2023-03-19T20:07:33.845Z,7.40
2023-03-19T20:10:37.392Z,7.78
2023-03-19T20:13:40.506Z,7.93
2023-03-19T20:16:44.161Z,8.40
2023-03-19T20:19:46.883Z,10.45
2023-03-19T20:22:50.083Z,8.13
2023-03-19T20:25:52.632Z,8.85
2023-03-19T20:28:54.917Z,7.93
2023-03-19T20:31:58.323Z,8.73
2023-03-19T20:35:01.134Z,8.48
2023-03-19T20:38:05.234Z,8.68
2023-03-19T20:41:20.214Z,7.90
2023-03-19T20:44:23.170Z,8.70
2023-03-19T20:50:33.125Z,7.90
2023-03-19T20:53:35.414Z,8.00
2023-03-19T20:56:45.848Z,8.02
2023-03-19T20:59:48.652Z,8.02
2023-03-19T21:02:52.463Z,9.25
2023-03-19T21:06:01.910Z,9.27
2023-03-19T21:09:04.600Z,8.38
2023-03-19T21:12:29.261Z,9.30
2023-03-19T21:15:32.900Z,8.10
2023-03-19T21:18:35.450Z,8.50
2023-03-19T21:21:38.834Z,8.85
2023-03-19T21:24:41.237Z,8.63
2023-03-19T21:27:46.954Z,8.63
2023-03-19T21:30:49.281Z,10.13
2023-03-19T21:33:56.481Z,9.50
2023-03-19T21:37:00.754Z,9.52
2023-03-19T21:40:03.847Z,10.20
2023-03-19T21:43:06.362Z,10.05
2023-03-19T21:46:24.237Z,10.68
2023-03-19T21:49:27.200Z,10.30
2023-03-19T21:52:29.420Z,9.95
2023-03-19T21:55:32.892Z,9.88
2023-03-19T21:58:36.314Z,10.52
2023-03-19T22:01:38.550Z,10.35
2023-03-19T22:04:40.829Z,9.48
2023-03-19T22:07:43.168Z,11.07
2023-03-19T22:10:45.725Z,9.85
2023-03-19T22:13:48.077Z,10.07
2023-03-19T22:16:53.086Z,10.57
2023-03-19T22:19:55.882Z,10.68
2023-03-19T22:22:58.916Z,10.93
2023-03-19T22:29:25.297Z,10.18
2023-03-19T22:32:27.666Z,9.25
2023-03-19T22:35:30.040Z,9.73
2023-03-19T22:38:32.424Z,10.52
2023-03-19T22:41:39.750Z,10.82
2023-03-19T22:44:41.983Z,10.68
2023-03-19T22:47:44.421Z,10.02
2023-03-19T22:50:46.670Z,9.18
2023-03-19T22:53:48.919Z,9.98
2023-03-19T22:56:51.241Z,9.95
2023-03-19T22:59:53.490Z,10.25
2023-03-19T23:02:57.791Z,10.80
2023-03-19T23:06:14.429Z,10.05
2023-03-19T23:09:27.616Z,9.05
2023-03-19T23:12:29.892Z,9.70
2023-03-19T23:15:34.746Z,10.00
2023-03-19T23:18:37.285Z,9.75
2023-03-19T23:21:39.552Z,9.60
2023-03-19T23:24:42.339Z,10.57
2023-03-19T23:27:45.650Z,9.07
2023-03-19T23:30:50.062Z,9.88
2023-03-19T23:33:52.350Z,9.60
2023-03-19T23:36:54.812Z,9.48
2023-03-19T23:39:57.794Z,9.85
2023-03-19T23:43:02.530Z,9.95
2023-03-19T23:46:04.891Z,9.68
2023-03-19T23:49:14.907Z,9.63
2023-03-19T23:52:17.527Z,10.80
2023-03-19T23:55:19.811Z,10.27
2023-03-19T23:58:22.343Z,9.75
